Time;durP1;ratioP1;P1;durP2;ratioP2;P2;SDS_P1;SDS_P2;PMS_P1;PMS_P2;Temp;Humidity;BMP_temperature;BMP_pressure;BME280_temperature;BME280_humidity;BME280_pressure;Samples;Min_cycle;Max_cycle;Signal;HPM_P1;HPM_P2
2022/03/03 00:02:18;;;;;;;101.43;47.67;;;1.80;99.90;;;;;;6309285;22;20094;-76
2022/03/03 00:04:43;;;;;;;102.18;46.10;;;1.80;99.90;;;;;;6328846;22;20529;-76
2022/03/03 00:07:10;;;;;;;103.78;47.20;;;1.70;99.90;;;;;;6328772;22;20088;-77
2022/03/03 00:09:35;;;;;;;97.63;44.92;;;1.70;99.90;;;;;;6304163;22;20031;-76
2022/03/03 00:12:01;;;;;;;102.53;45.67;;;1.70;99.90;;;;;;6331841;22;20514;-76
2022/03/03 00:14:28;;;;;;;105.72;45.15;;;1.70;99.90;;;;;;6305968;22;20020;-76
2022/03/03 00:16:55;;;;;;;106.88;47.60;;;1.70;99.90;;;;;;6281728;22;20020;-76
2022/03/03 00:19:21;;;;;;;112.70;49.03;;;1.60;99.90;;;;;;6304930;22;20455;-76
2022/03/03 00:21:47;;;;;;;111.53;47.40;;;1.60;99.90;;;;;;6330936;22;20080;-76
2022/03/03 00:24:13;;;;;;;112.18;48.47;;;1.60;99.90;;;;;;6304588;22;20481;-76
2022/03/03 00:26:39;;;;;;;106.88;48.00;;;1.60;99.90;;;;;;6307476;22;20027;-77
2022/03/03 00:29:04;;;;;;;107.70;45.97;;;1.50;99.90;;;;;;6305403;22;20015;-76
2022/03/03 00:31:30;;;;;;;101.07;45.95;;;1.50;99.90;;;;;;6304705;22;20038;-76
2022/03/03 00:33:56;;;;;;;99.65;43.40;;;1.40;99.90;;;;;;6280351;22;20459;-76
2022/03/03 00:36:22;;;;;;;104.32;47.92;;;1.40;99.90;;;;;;6305801;22;20015;-76
2022/03/03 00:38:48;;;;;;;115.15;48.38;;;1.40;99.90;;;;;;6305504;22;20402;-77
2022/03/03 00:41:14;;;;;;;102.45;44.28;;;1.30;99.90;;;;;;6331698;22;20015;-77
2022/03/03 00:43:40;;;;;;;108.47;46.55;;;1.30;99.90;;;;;;6305700;22;20081;-76
2022/03/03 00:46:06;;;;;;;113.95;47.05;;;1.30;99.90;;;;;;6330589;22;20035;-76
2022/03/03 00:48:32;;;;;;;122.53;50.67;;;1.30;99.90;;;;;;6305811;22;20026;-76
2022/03/03 00:51:00;;;;;;;110.07;47.10;;;1.20;99.90;;;;;;6332196;22;20023;-76
2022/03/03 00:53:26;;;;;;;109.70;46.00;;;1.20;99.90;;;;;;6305562;22;20030;-75
2022/03/03 00:55:52;;;;;;;107.93;47.78;;;1.20;99.90;;;;;;6305111;22;20026;-76
2022/03/03 00:58:17;;;;;;;106.72;47.58;;;1.10;99.90;;;;;;6305773;22;20031;-76
2022/03/03 01:00:43;;;;;;;102.40;45.20;;;1.10;99.90;;;;;;6303989;22;20387;-76
2022/03/03 01:03:09;;;;;;;101.78;45.30;;;1.10;99.90;;;;;;6305301;22;20118;-76
2022/03/03 01:05:35;;;;;;;118.47;49.30;;;1.10;99.90;;;;;;6332032;22;20031;-74
2022/03/03 01:08:01;;;;;;;104.70;45.80;;;1.00;99.90;;;;;;6279101;22;20176;-76
2022/03/03 01:10:27;;;;;;;111.07;48.72;;;1.00;99.90;;;;;;6305476;22;20027;-76
2022/03/03 01:12:53;;;;;;;105.93;46.85;;;1.00;99.90;;;;;;6331174;22;20099;-76
2022/03/03 01:15:19;;;;;;;101.05;45.15;;;0.90;99.90;;;;;;6305269;22;20023;-76
2022/03/03 01:17:48;;;;;;;108.53;45.15;;;0.90;99.90;;;;;;6277722;22;20021;-77
2022/03/03 01:20:14;;;;;;;98.10;46.55;;;0.90;99.90;;;;;;6253383;22;20054;-78
2022/03/03 01:22:39;;;;;;;108.03;47.03;;;0.90;99.90;;;;;;6305120;22;20023;-75
2022/03/03 01:25:14;;;;;;;;;;;0.80;99.90;;;;;;6303755;22;20015;-76
2022/03/03 01:27:40;;;;;;;97.63;43.72;;;0.80;99.90;;;;;;6304648;22;20017;-76
2022/03/03 01:30:07;;;;;;;98.50;44.55;;;0.80;99.90;;;;;;6330036;22;20027;-76
2022/03/03 01:32:33;;;;;;;98.82;46.13;;;0.70;99.90;;;;;;6305169;22;20023;-76
2022/03/03 01:35:01;;;;;;;102.53;45.67;;;0.70;99.90;;;;;;6304221;22;20465;-76
2022/03/03 01:37:27;;;;;;;109.57;47.13;;;0.70;99.90;;;;;;6281011;22;20033;-76
2022/03/03 01:39:52;;;;;;;100.20;46.10;;;0.70;99.90;;;;;;6279390;22;20512;-77
2022/03/03 01:42:30;;;;;;;104.93;43.72;;;0.70;99.90;;;;;;6279045;22;20083;-77
2022/03/03 01:44:56;;;;;;;101.97;43.67;;;0.70;99.90;;;;;;6305088;22;20023;-77
2022/03/03 01:47:24;;;;;;;103.80;43.88;;;0.70;99.90;;;;;;6303521;22;20030;-77
2022/03/03 01:49:53;;;;;;;100.70;43.40;;;0.70;99.90;;;;;;6304264;22;20031;-76
2022/03/03 01:52:20;;;;;;;108.68;46.25;;;0.70;99.90;;;;;;6304456;22;20363;-76
2022/03/03 01:54:49;;;;;;;101.00;44.70;;;0.60;99.90;;;;;;6278834;22;20488;-76
2022/03/03 01:57:24;;;;;;;103.40;47.72;;;0.70;99.90;;;;;;6303997;22;20637;-76
2022/03/03 01:59:50;;;;;;;102.63;48.63;;;0.70;99.90;;;;;;6278924;22;20019;-76
2022/03/03 02:02:15;;;;;;;106.07;45.17;;;0.60;99.90;;;;;;6332039;22;20034;-76
2022/03/03 02:04:41;;;;;;;105.30;47.70;;;0.60;99.90;;;;;;6284037;22;20053;-76
2022/03/03 02:07:09;;;;;;;102.03;46.75;;;0.60;99.90;;;;;;6284107;22;20023;-77
2022/03/03 02:09:35;;;;;;;105.80;47.28;;;0.60;99.90;;;;;;6309873;22;20022;-76
2022/03/03 02:12:02;;;;;;;107.78;47.60;;;0.60;99.90;;;;;;6309989;22;20454;-76
2022/03/03 02:14:28;;;;;;;95.63;44.55;;;0.60;99.90;;;;;;6338029;22;20093;-76
2022/03/03 02:16:54;;;;;;;96.80;43.65;;;0.60;99.90;;;;;;6310062;22;20053;-76
2022/03/03 02:19:21;;;;;;;107.22;48.65;;;0.60;99.90;;;;;;6283583;22;20079;-75
2022/03/03 02:21:54;;;;;;;104.72;46.33;;;0.60;99.90;;;;;;6310551;22;20018;-75
2022/03/03 02:24:20;;;;;;;108.72;46.83;;;0.50;99.90;;;;;;6283356;22;20088;-75
2022/03/03 02:27:07;;;;;;;116.88;48.25;;;0.50;99.90;;;;;;6309702;22;20353;-76
2022/03/03 02:29:38;;;;;;;102.45;46.53;;;0.50;99.90;;;;;;6283652;22;20018;-76
2022/03/03 02:32:06;;;;;;;103.63;44.90;;;0.40;99.90;;;;;;6282481;22;20050;-76
2022/03/03 02:34:32;;;;;;;95.00;43.42;;;0.40;99.90;;;;;;6310104;22;20458;-75
2022/03/03 02:36:58;;;;;;;95.80;43.25;;;0.40;99.90;;;;;;6309601;22;20027;-76
2022/03/03 02:39:24;;;;;;;97.57;45.28;;;0.40;99.90;;;;;;6309594;22;20088;-75
2022/03/03 02:41:50;;;;;;;97.03;43.67;;;0.40;99.90;;;;;;6309048;22;20050;-76
2022/03/03 02:44:19;;;;;;;99.65;41.63;;;0.40;99.90;;;;;;6283030;22;20034;-76
2022/03/03 02:47:00;;;;;;;95.97;44.20;;;0.40;99.90;;;;;;6309233;22;20362;-75
2022/03/03 02:49:26;;;;;;;95.93;43.33;;;0.40;99.90;;;;;;6282601;22;20029;-75
2022/03/03 02:51:52;;;;;;;95.07;43.90;;;0.50;99.90;;;;;;6283654;22;20023;-76
2022/03/03 02:54:18;;;;;;;88.88;39.70;;;0.50;99.90;;;;;;6309797;22;20015;-75
2022/03/03 02:59:28;;;;;;;93.43;41.78;;;0.50;99.90;;;;;;6309234;22;20471;-76
2022/03/03 03:01:54;;;;;;;88.68;40.33;;;0.50;99.90;;;;;;6282707;22;20019;-75
2022/03/03 03:04:19;;;;;;;86.68;40.35;;;0.50;99.90;;;;;;6283393;22;20599;-75
2022/03/03 03:06:48;;;;;;;96.05;42.30;;;0.40;99.90;;;;;;6309290;22;20034;-76
2022/03/03 03:09:15;;;;;;;94.72;41.47;;;0.40;99.90;;;;;;6284792;22;20071;-75
2022/03/03 03:11:41;;;;;;;96.22;42.05;;;0.40;99.90;;;;;;6283228;22;20362;-75
2022/03/03 03:14:06;;;;;;;92.43;43.70;;;0.30;99.90;;;;;;6308763;22;20026;-76
2022/03/03 03:16:32;;;;;;;95.05;44.50;;;0.30;99.90;;;;;;6284054;22;20093;-76
2022/03/03 03:18:58;;;;;;;93.43;43.45;;;0.30;99.90;;;;;;6283655;22;20410;-75
2022/03/03 03:21:24;;;;;;;99.40;46.03;;;0.20;99.90;;;;;;6309459;22;20347;-75
2022/03/03 03:23:50;;;;;;;108.13;46.42;;;0.20;99.90;;;;;;6283593;22;20027;-76
2022/03/03 03:26:16;;;;;;;103.00;45.22;;;0.20;99.90;;;;;;6309332;22;20023;-76
2022/03/03 03:28:41;;;;;;;103.65;48.22;;;0.20;99.90;;;;;;6307771;22;20014;-76
2022/03/03 03:31:07;;;;;;;116.93;50.22;;;0.20;99.90;;;;;;6309426;22;20030;-76
2022/03/03 03:33:33;;;;;;;112.50;48.10;;;0.20;99.90;;;;;;6309846;22;20040;-76
2022/03/03 03:36:01;;;;;;;108.75;47.17;;;0.20;99.90;;;;;;6283298;22;20434;-76
2022/03/03 03:38:27;;;;;;;108.38;48.72;;;0.20;99.90;;;;;;6283365;22;20173;-76
2022/03/03 03:41:01;;;;;;;114.85;47.85;;;0.10;99.90;;;;;;6309161;22;20018;-75
2022/03/03 03:43:27;;;;;;;108.97;47.45;;;0.20;99.90;;;;;;6308511;22;20396;-76
2022/03/03 03:45:53;;;;;;;117.00;46.88;;;0.10;99.90;;;;;;6309087;22;20075;-76
2022/03/03 03:48:19;;;;;;;113.30;47.88;;;0.10;99.90;;;;;;6309611;22;20080;-76
2022/03/03 03:50:45;;;;;;;119.32;48.20;;;0.10;99.90;;;;;;6309895;22;20022;-76
2022/03/03 03:53:11;;;;;;;109.03;46.28;;;0.10;99.90;;;;;;6337308;22;20030;-75
2022/03/03 03:55:37;;;;;;;101.18;44.60;;;0.10;99.90;;;;;;6309691;22;20019;-76
2022/03/03 03:58:07;;;;;;;101.25;44.53;;;0.10;99.90;;;;;;6282478;22;20462;-76
2022/03/03 04:00:33;;;;;;;95.25;43.45;;;0.10;99.90;;;;;;6283033;22;20097;-75
2022/03/03 04:02:59;;;;;;;107.72;45.67;;;0.00;99.90;;;;;;6309051;22;20050;-75
2022/03/03 04:05:25;;;;;;;106.95;44.70;;;0.00;99.90;;;;;;6307966;22;20027;-76
2022/03/03 04:07:51;;;;;;;103.80;45.92;;;0.00;99.90;;;;;;6309041;22;20476;-75
2022/03/03 04:10:17;;;;;;;97.15;42.97;;;0.00;99.90;;;;;;6336914;22;20022;-76
2022/03/03 04:12:43;;;;;;;100.20;44.22;;;0.00;99.90;;;;;;6308437;22;20015;-77
2022/03/03 04:15:10;;;;;;;96.07;42.88;;;0.00;99.90;;;;;;6283379;22;20535;-76
2022/03/03 04:17:36;;;;;;;103.00;45.20;;;-0.10;99.90;;;;;;6283188;22;20052;-76
2022/03/03 04:20:12;;;;;;;99.53;43.95;;;-0.10;99.90;;;;;;6281877;22;20019;-76
2022/03/03 04:22:44;;;;;;;93.65;40.65;;;-0.10;99.90;;;;;;6283322;22;20452;-76
2022/03/03 04:25:10;;;;;;;98.78;45.95;;;-0.10;99.90;;;;;;6284176;22;20034;-76
2022/03/03 04:27:37;;;;;;;98.63;44.38;;;0.00;99.90;;;;;;6309599;22;20023;-76
2022/03/03 04:30:10;;;;;;;95.55;44.50;;;0.00;99.90;;;;;;6308655;22;20098;-76
2022/03/03 04:32:51;;;;;;;88.38;40.72;;;0.00;99.90;;;;;;6272046;22;20027;-75
2022/03/03 04:35:18;;;;;;;88.57;43.58;;;-0.10;99.90;;;;;;6220679;22;20020;-76
2022/03/03 04:37:43;;;;;;;85.82;39.75;;;-0.10;99.90;;;;;;6195624;22;20016;-77
2022/03/03 04:40:18;;;;;;;86.05;39.95;;;-0.10;99.90;;;;;;6271760;22;20035;-76
2022/03/03 04:42:44;;;;;;;83.65;40.63;;;-0.10;99.90;;;;;;6245835;22;20103;-76
2022/03/03 04:45:10;;;;;;;85.45;42.50;;;-0.10;99.90;;;;;;6245476;22;20061;-76
2022/03/03 04:47:36;;;;;;;82.40;39.92;;;-0.20;99.90;;;;;;6220442;22;20034;-76
2022/03/03 04:50:02;;;;;;;83.20;40.60;;;-0.20;99.90;;;;;;6246176;22;20020;-76
2022/03/03 04:52:28;;;;;;;78.68;38.53;;;-0.20;99.90;;;;;;6246020;22;20128;-76
2022/03/03 04:54:54;;;;;;;82.35;39.83;;;-0.20;99.90;;;;;;6271677;22;20055;-76
2022/03/03 04:57:21;;;;;;;84.57;40.47;;;-0.30;99.90;;;;;;6247332;22;20106;-76
2022/03/03 04:59:48;;;;;;;84.45;40.25;;;-0.30;99.90;;;;;;6247038;22;20121;-76
2022/03/03 05:02:14;;;;;;;77.53;38.38;;;-0.30;99.90;;;;;;6222716;22;20527;-76
2022/03/03 05:04:40;;;;;;;82.47;39.28;;;-0.30;99.90;;;;;;6300028;22;20058;-76
2022/03/03 05:07:06;;;;;;;83.82;40.53;;;-0.30;99.90;;;;;;6284802;22;20026;-76
2022/03/03 05:09:50;;;;;;;81.80;38.90;;;-0.30;99.90;;;;;;6315210;22;20561;-75
2022/03/03 05:12:16;;;;;;;85.88;39.80;;;-0.30;99.90;;;;;;6284579;22;20054;-76
2022/03/03 05:14:42;;;;;;;81.97;38.75;;;-0.30;99.90;;;;;;6338628;22;20058;-75
2022/03/03 05:17:08;;;;;;;81.80;40.15;;;-0.30;99.90;;;;;;6310560;22;20068;-76
2022/03/03 05:19:34;;;;;;;81.80;38.95;;;-0.30;99.90;;;;;;6310361;22;20054;-76
2022/03/03 05:21:59;;;;;;;75.53;36.28;;;-0.40;99.90;;;;;;6310554;22;20027;-76
2022/03/03 05:24:25;;;;;;;84.45;38.85;;;-0.40;99.90;;;;;;6284927;22;20023;-74
2022/03/03 05:26:51;;;;;;;77.75;39.05;;;-0.40;99.90;;;;;;6310248;22;20033;-76
2022/03/03 05:29:27;;;;;;;77.85;37.03;;;-0.40;99.90;;;;;;6310348;22;20093;-75
2022/03/03 05:31:57;;;;;;;80.50;40.05;;;-0.50;99.90;;;;;;6285498;22;20019;-75
2022/03/03 05:34:24;;;;;;;82.22;39.80;;;-0.40;99.90;;;;;;6284300;22;20019;-76
2022/03/03 05:36:49;;;;;;;85.55;38.88;;;-0.40;99.90;;;;;;6309146;22;20523;-76
2022/03/03 05:39:16;;;;;;;83.88;39.17;;;-0.40;99.90;;;;;;6284592;22;20046;-75
2022/03/03 05:41:42;;;;;;;81.10;38.80;;;-0.40;99.90;;;;;;6284069;22;20531;-75
2022/03/03 05:44:15;;;;;;;84.85;39.28;;;-0.40;99.90;;;;;;6284324;22;20018;-75
2022/03/03 05:46:42;;;;;;;86.15;40.80;;;-0.40;99.90;;;;;;6260475;22;20023;-76
2022/03/03 05:49:08;;;;;;;86.95;39.33;;;-0.40;99.90;;;;;;6310348;22;20069;-76
2022/03/03 05:51:35;;;;;;;78.63;38.40;;;-0.30;99.90;;;;;;6310056;22;20695;-76
2022/03/03 05:54:01;;;;;;;87.40;38.95;;;-0.30;99.90;;;;;;6310781;22;20052;-75
2022/03/03 05:56:32;;;;;;;78.47;39.35;;;-0.30;99.90;;;;;;6283828;22;20029;-75
2022/03/03 05:59:21;;;;;;;83.63;40.00;;;-0.40;99.90;;;;;;6257485;22;20073;-76
2022/03/03 06:01:47;;;;;;;87.07;38.20;;;-0.40;99.90;;;;;;6310321;22;20097;-75
2022/03/03 06:04:16;;;;;;;76.43;38.05;;;-0.40;99.90;;;;;;6258513;22;20497;-75
2022/03/03 06:07:01;;;;;;;82.47;39.17;;;-0.40;99.90;;;;;;6256975;22;20022;-75
2022/03/03 06:09:30;;;;;;;;;;;-0.40;99.90;;;;;;6310421;22;20018;-75
2022/03/03 06:12:25;;;;;;;75.68;38.25;;;-0.40;99.90;;;;;;6309981;22;19965;-75
2022/03/03 06:14:59;;;;;;;82.35;37.70;;;-0.40;99.90;;;;;;6267615;22;20054;-75
2022/03/03 06:17:25;;;;;;;78.82;37.33;;;-0.40;99.90;;;;;;6310063;22;20336;-75
2022/03/03 06:19:58;;;;;;;81.22;40.10;;;-0.40;99.90;;;;;;6309917;22;20015;-75
2022/03/03 06:22:24;;;;;;;75.65;38.53;;;-0.50;99.90;;;;;;6310060;22;20018;-75
2022/03/03 06:24:50;;;;;;;78.18;39.50;;;-0.50;99.90;;;;;;6309754;22;20026;-75
2022/03/03 06:27:16;;;;;;;74.32;38.03;;;-0.50;99.90;;;;;;6309342;22;20022;-76
2022/03/03 06:29:42;;;;;;;79.22;39.10;;;-0.50;99.90;;;;;;6282766;22;20523;-75
2022/03/03 06:32:08;;;;;;;77.18;38.03;;;-0.50;99.90;;;;;;6284121;22;20381;-76
2022/03/03 06:34:35;;;;;;;82.70;39.72;;;-0.50;99.90;;;;;;6308495;22;20367;-76
2022/03/03 06:37:00;;;;;;;74.32;36.38;;;-0.40;99.90;;;;;;6283993;22;20022;-75
2022/03/03 06:39:26;;;;;;;78.60;37.80;;;-0.40;99.90;;;;;;6309564;22;20048;-75
2022/03/03 06:41:52;;;;;;;88.05;39.75;;;-0.40;99.90;;;;;;6309614;22;20026;-75
2022/03/03 06:44:19;;;;;;;82.97;39.33;;;-0.40;99.90;;;;;;6309649;22;20339;-75
2022/03/03 06:46:45;;;;;;;77.43;37.33;;;-0.30;99.90;;;;;;6283596;22;20026;-75
2022/03/03 06:49:14;;;;;;;81.15;38.15;;;-0.30;99.90;;;;;;6309400;22;20089;-75
2022/03/03 06:51:44;;;;;;;74.53;40.38;;;-0.30;99.90;;;;;;6215433;23;20024;-75
2022/03/03 06:54:29;;;;;;;84.70;39.42;;;-0.30;99.90;;;;;;6190824;23;20487;-74
2022/03/03 06:56:57;;;;;;;84.95;39.55;;;-0.20;99.90;;;;;;6190842;23;20020;-75
2022/03/03 06:59:25;;;;;;;80.70;38.15;;;-0.10;99.90;;;;;;6216285;23;20016;-76
2022/03/03 07:01:52;;;;;;;78.93;38.13;;;-0.10;99.90;;;;;;6241312;23;20028;-75
2022/03/03 07:04:19;;;;;;;76.60;37.83;;;0.00;99.90;;;;;;6190052;23;20020;-76
2022/03/03 07:06:48;;;;;;;75.82;40.05;;;0.00;99.90;;;;;;6214563;23;20028;-75
2022/03/03 07:09:15;;;;;;;77.80;37.28;;;0.10;99.90;;;;;;6191152;23;20085;-75
2022/03/03 07:11:42;;;;;;;79.40;38.53;;;0.20;99.90;;;;;;6214790;23;20398;-75
2022/03/03 07:14:08;;;;;;;80.95;41.65;;;0.30;99.90;;;;;;6215597;23;20024;-76
2022/03/03 07:16:37;;;;;;;78.47;37.97;;;0.30;99.90;;;;;;6190677;23;20071;-76
2022/03/03 07:19:04;;;;;;;85.90;40.60;;;0.50;99.90;;;;;;6215223;23;20020;-76
2022/03/03 07:21:52;;;;;;;79.40;39.08;;;0.60;99.90;;;;;;6218254;22;20611;-75
2022/03/03 07:24:28;;;;;;;74.32;37.45;;;0.70;99.90;;;;;;6309243;22;20054;-76
2022/03/03 07:27:01;;;;;;;76.72;40.03;;;0.80;99.90;;;;;;6282526;22;20351;-75
2022/03/03 07:29:30;;;;;;;81.15;38.15;;;1.00;99.90;;;;;;6283803;22;20085;-75
2022/03/03 07:31:59;;;;;;;80.72;39.60;;;1.10;99.90;;;;;;6308357;22;20080;-75
2022/03/03 07:34:36;;;;;;;80.50;39.25;;;1.30;99.90;;;;;;6308329;22;20485;-75
2022/03/03 07:37:05;;;;;;;77.95;39.75;;;1.50;99.90;;;;;;6308578;22;20025;-75
2022/03/03 07:39:42;;;;;;;76.35;39.22;;;1.50;99.90;;;;;;6337728;22;20339;-75
2022/03/03 07:42:17;;;;;;;74.03;36.80;;;1.60;99.90;;;;;;6308850;22;20019;-75
2022/03/03 07:44:47;;;;;;;84.05;40.22;;;1.70;99.90;;;;;;6283168;22;20101;-75
2022/03/03 07:47:13;;;;;;;80.93;39.00;;;1.80;99.90;;;;;;6283182;22;20119;-76
2022/03/03 07:49:40;;;;;;;75.65;38.78;;;1.90;99.90;;;;;;6308811;22;20450;-76
2022/03/03 07:52:07;;;;;;;81.55;39.72;;;2.10;99.90;;;;;;6283761;22;20466;-76
2022/03/03 07:54:34;;;;;;;82.57;39.67;;;2.20;99.90;;;;;;6309081;22;20373;-77
2022/03/03 07:57:01;;;;;;;72.93;37.67;;;2.30;99.90;;;;;;6282567;22;20023;-76
2022/03/03 07:59:32;;;;;;;76.35;36.83;;;2.40;99.90;;;;;;6308773;22;20057;-76
2022/03/03 08:02:00;;;;;;;69.28;35.35;;;2.50;99.90;;;;;;6257026;22;20015;-76
2022/03/03 08:04:29;;;;;;;74.03;35.55;;;2.60;99.90;;;;;;6277990;22;20049;-76
2022/03/03 08:07:09;;;;;;;72.45;36.85;;;2.80;99.90;;;;;;6304909;22;20350;-76
2022/03/03 08:09:38;;;;;;;70.95;34.45;;;2.90;99.90;;;;;;6278405;22;20112;-76
2022/03/03 08:12:06;;;;;;;75.80;37.17;;;3.00;99.90;;;;;;6305917;22;20054;-77
2022/03/03 08:14:32;;;;;;;67.65;36.88;;;3.00;99.90;;;;;;6252119;22;20015;-77
2022/03/03 08:16:58;;;;;;;67.15;34.33;;;3.10;99.90;;;;;;6303824;22;20027;-77
2022/03/03 08:19:24;;;;;;;66.53;33.22;;;3.20;99.90;;;;;;6328952;22;20022;-77
2022/03/03 08:22:10;;;;;;;63.10;32.65;;;3.30;99.90;;;;;;6302721;22;20034;-77
2022/03/03 08:24:42;;;;;;;63.92;31.75;;;3.40;99.90;;;;;;6303238;22;20032;-77
2022/03/03 08:27:12;;;;;;;57.55;30.00;;;3.50;99.90;;;;;;6252836;22;20098;-78
2022/03/03 08:29:39;;;;;;;58.55;30.83;;;3.60;99.90;;;;;;6279178;22;20108;-78
2022/03/03 08:32:14;;;;;;;63.30;30.27;;;3.80;99.90;;;;;;6305195;22;20477;-77
2022/03/03 08:35:01;;;;;;;61.75;30.02;;;3.80;99.90;;;;;;6279834;22;20023;-77
2022/03/03 08:37:54;;;;;;;61.25;31.05;;;4.00;99.90;;;;;;6284391;22;20073;-77
2022/03/03 08:40:35;;;;;;;55.13;28.45;;;4.10;99.90;;;;;;6305929;22;20094;-76
2022/03/03 08:43:26;;;;;;;58.50;30.45;;;4.20;99.90;;;;;;6304282;22;20023;-77
2022/03/03 08:46:09;;;;;;;51.00;28.13;;;4.30;99.90;;;;;;6202014;22;20024;-76
2022/03/03 08:48:35;;;;;;;48.85;25.60;;;4.50;99.90;;;;;;6222190;22;20020;-78
2022/03/03 08:51:02;;;;;;;58.97;28.88;;;4.50;99.90;;;;;;6273400;22;20394;-77
2022/03/03 08:53:28;;;;;;;48.17;27.65;;;4.60;99.90;;;;;;6273505;22;20023;-77
2022/03/03 08:55:58;;;;;;;48.70;28.23;;;4.70;99.90;;;;;;6247498;22;20646;-77
2022/03/03 08:58:25;;;;;;;53.20;29.92;;;4.80;99.90;;;;;;6247801;22;20058;-78
2022/03/03 09:00:51;;;;;;;54.78;28.20;;;4.80;99.90;;;;;;6247904;22;20032;-77
2022/03/03 09:03:24;;;;;;;51.45;29.60;;;4.90;99.90;;;;;;6273331;22;20107;-77
2022/03/03 09:05:50;;;;;;;52.80;29.38;;;5.00;99.90;;;;;;6247698;22;20481;-77
2022/03/03 09:08:19;;;;;;;62.72;26.60;;;5.10;99.90;;;;;;6273291;22;20020;-76
2022/03/03 09:10:46;;;;;;;47.97;26.55;;;5.20;99.90;;;;;;6247175;22;20420;-77
2022/03/03 09:13:33;;;;;;;49.22;26.50;;;5.30;99.90;;;;;;6221680;22;20038;-78
2022/03/03 09:15:59;;;;;;;49.92;27.30;;;5.40;99.90;;;;;;6231400;22;20031;-77
2022/03/03 09:18:26;;;;;;;47.60;28.83;;;5.50;99.90;;;;;;6309757;22;20086;-77
2022/03/03 09:20:52;;;;;;;50.65;27.58;;;5.60;99.90;;;;;;6283933;22;20476;-78
2022/03/03 09:23:18;;;;;;;47.95;26.15;;;5.70;99.90;;;;;;6310397;22;20050;-77
2022/03/03 09:25:49;;;;;;;49.78;27.77;;;5.80;99.90;;;;;;6221912;22;20355;-78
2022/03/03 09:28:16;;;;;;;48.38;25.27;;;5.90;99.90;;;;;;6273010;22;20545;-77
2022/03/03 09:30:46;;;;;;;45.60;25.13;;;6.00;99.90;;;;;;6197309;22;20020;-77
2022/03/03 09:33:13;;;;;;;45.72;23.85;;;6.10;99.90;;;;;;6221702;22;20089;-77
2022/03/03 09:35:39;;;;;;;44.15;25.85;;;6.20;99.90;;;;;;6247526;22;20070;-77
2022/03/03 09:38:05;;;;;;;41.92;24.90;;;6.30;99.90;;;;;;6246611;22;20015;-76
2022/03/03 09:40:31;;;;;;;42.42;25.30;;;6.30;99.90;;;;;;6272821;22;20034;-77
2022/03/03 09:43:05;;;;;;;41.83;24.33;;;6.40;99.90;;;;;;6246507;22;20026;-77
2022/03/03 09:45:32;;;;;;;41.63;25.52;;;6.50;99.90;;;;;;6273006;22;20073;-77
2022/03/03 09:48:00;;;;;;;43.78;24.52;;;6.70;99.90;;;;;;6273218;22;20042;-78
2022/03/03 09:50:31;;;;;;;40.53;24.17;;;6.70;99.90;;;;;;6273039;22;20102;-79
2022/03/03 09:52:58;;;;;;;47.20;25.58;;;6.80;99.90;;;;;;6247664;22;20460;-78
2022/03/03 09:55:24;;;;;;;43.08;24.13;;;6.90;99.90;;;;;;6246819;22;20016;-78
2022/03/03 09:57:51;;;;;;;41.97;24.85;;;6.90;99.90;;;;;;6307515;22;20027;-78
2022/03/03 10:00:18;;;;;;;33.28;21.25;;;6.90;99.90;;;;;;6309209;22;20454;-78
2022/03/03 10:02:58;;;;;;;39.55;23.08;;;7.00;99.90;;;;;;6336994;22;20015;-78
2022/03/03 10:05:38;;;;;;;36.92;20.50;;;7.20;99.90;;;;;;6304478;22;20027;-78
2022/03/03 10:08:08;;;;;;;35.35;20.98;;;7.30;99.90;;;;;;6305283;22;20031;-78
2022/03/03 10:11:03;;;;;;;36.08;20.20;;;7.40;99.90;;;;;;6283814;22;20458;-78
2022/03/03 10:13:50;;;;;;;34.08;20.60;;;7.60;99.90;;;;;;6277676;22;20023;-79
2022/03/03 10:16:23;;;;;;;34.53;19.92;;;7.80;99.90;;;;;;6254290;22;20162;-78
2022/03/03 10:19:06;;;;;;;35.22;20.10;;;7.90;99.90;;;;;;6279578;22;20015;-78
2022/03/03 10:21:35;;;;;;;32.85;18.40;;;8.10;99.90;;;;;;6281252;22;20088;-78
2022/03/03 10:24:24;;;;;;;30.10;18.58;;;8.30;99.90;;;;;;6255243;22;20019;-78
2022/03/03 10:27:00;;;;;;;30.15;17.83;;;8.40;99.90;;;;;;6304628;22;20023;-77
2022/03/03 10:29:26;;;;;;;27.67;17.60;;;8.50;99.90;;;;;;6304645;22;20023;-78
2022/03/03 10:31:55;;;;;;;28.27;18.42;;;8.70;99.90;;;;;;6304620;22;20019;-75
2022/03/03 10:34:27;;;;;;;27.55;16.98;;;8.80;99.90;;;;;;6278997;22;20020;-76
2022/03/03 10:37:19;;;;;;;30.75;18.92;;;8.90;99.60;;;;;;6278773;22;20033;-76
2022/03/03 10:39:48;;;;;;;32.65;18.23;;;9.10;99.90;;;;;;6304146;22;20019;-75
2022/03/03 10:42:19;;;;;;;28.52;17.20;;;9.30;99.90;;;;;;6304053;22;20098;-75
2022/03/03 10:44:46;;;;;;;29.35;18.35;;;9.40;98.80;;;;;;6304412;22;20054;-76
2022/03/03 10:47:17;;;;;;;29.05;17.20;;;9.60;98.40;;;;;;6278168;22;20393;-76
2022/03/03 10:49:48;;;;;;;26.10;17.90;;;9.80;98.50;;;;;;6279149;22;20019;-76
2022/03/03 10:52:20;;;;;;;27.85;17.73;;;10.10;96.60;;;;;;6304262;22;20026;-76
2022/03/03 10:54:51;;;;;;;31.77;18.45;;;10.30;98.00;;;;;;6303045;22;20020;-76
2022/03/03 10:57:42;;;;;;;30.30;18.20;;;10.50;96.60;;;;;;6278118;22;20115;-76
2022/03/03 11:00:16;;;;;;;29.55;17.17;;;10.40;94.20;;;;;;6303469;22;20080;-77
2022/03/03 11:03:29;;;;;;;27.83;17.45;;;10.60;96.20;;;;;;6303477;22;20015;-76
2022/03/03 11:05:56;;;;;;;28.55;16.35;;;10.70;95.60;;;;;;6251019;22;20027;-76
2022/03/03 11:08:46;;;;;;;28.05;15.88;;;10.60;95.60;;;;;;6276486;22;20081;-76
2022/03/03 11:11:21;;;;;;;23.95;14.50;;;10.70;91.80;;;;;;6277590;22;20030;-75
2022/03/03 11:13:49;;;;;;;23.52;15.75;;;10.70;94.90;;;;;;6277935;22;20481;-76
2022/03/03 11:16:21;;;;;;;26.95;16.80;;;11.10;95.00;;;;;;6251677;22;20019;-76
2022/03/03 11:18:47;;;;;;;28.00;16.73;;;11.50;93.50;;;;;;6276867;22;20458;-77
2022/03/03 11:21:14;;;;;;;26.23;17.38;;;11.70;93.70;;;;;;6251459;22;20019;-77
2022/03/03 11:24:03;;;;;;;25.55;16.13;;;11.80;93.60;;;;;;6301221;22;20062;-77
2022/03/03 11:26:34;;;;;;;24.17;16.48;;;12.10;93.20;;;;;;6252014;22;20585;-77
2022/03/03 11:29:16;;;;;;;22.77;15.88;;;12.40;93.10;;;;;;6250959;22;20023;-77
2022/03/03 11:32:09;;;;;;;24.23;16.20;;;12.90;92.40;;;;;;6276956;22;20123;-76
2022/03/03 11:34:36;;;;;;;24.70;16.83;;;13.20;89.90;;;;;;6251796;22;20462;-77
2022/03/03 11:37:18;;;;;;;29.30;15.65;;;13.10;90.00;;;;;;6295462;22;20029;-77
2022/03/03 11:39:46;;;;;;;26.73;16.17;;;13.50;80.70;;;;;;6309610;22;20019;-76
2022/03/03 11:42:25;;;;;;;25.70;16.10;;;13.80;78.80;;;;;;6308970;22;20372;-77
2022/03/03 11:45:15;;;;;;;23.70;16.40;;;14.10;72.80;;;;;;6309234;22;20058;-76
2022/03/03 11:47:47;;;;;;;39.38;25.00;;;14.60;78.60;;;;;;6280323;22;20019;-77
2022/03/03 11:50:23;;;;;;;37.13;25.73;;;15.30;90.70;;;;;;6282671;22;20106;-78
2022/03/03 11:52:53;;;;;;;35.42;22.85;;;16.10;86.60;;;;;;6308793;22;20074;-77
2022/03/03 11:55:39;;;;;;;29.50;20.85;;;16.50;68.30;;;;;;6308053;22;20056;-77
2022/03/03 11:58:29;;;;;;;25.23;17.77;;;16.70;64.50;;;;;;6309276;22;20458;-77
2022/03/03 12:00:58;;;;;;;27.80;17.83;;;16.50;56.30;;;;;;6307966;22;20080;-76
2022/03/03 12:04:17;;;;;;;24.77;17.30;;;16.60;54.00;;;;;;6297884;22;20538;-77
2022/03/03 12:06:45;;;;;;;26.08;18.20;;;17.00;48.30;;;;;;6224367;22;20029;-76
2022/03/03 12:09:32;;;;;;;24.52;17.13;;;17.90;51.20;;;;;;6276772;22;20023;-76
2022/03/03 12:12:07;;;;;;;28.15;18.27;;;18.30;44.30;;;;;;6302657;22;20090;-77
2022/03/03 12:15:01;;;;;;;25.50;17.48;;;18.50;45.20;;;;;;6251679;22;20019;-76
2022/03/03 12:17:58;;;;;;;22.52;16.45;;;18.90;43.10;;;;;;6236566;22;20019;-76
2022/03/03 12:20:24;;;;;;;28.60;19.95;;;19.10;40.60;;;;;;6302512;22;20048;-76
2022/03/03 12:23:13;;;;;;;29.05;18.35;;;19.40;41.60;;;;;;6250596;22;20490;-76
2022/03/03 12:25:50;;;;;;;28.15;18.02;;;19.20;39.90;;;;;;6250230;22;20107;-76
2022/03/03 12:28:37;;;;;;;28.52;19.27;;;19.30;40.00;;;;;;6249966;22;20030;-77
2022/03/03 12:31:24;;;;;;;30.63;20.33;;;19.90;40.40;;;;;;6302662;22;20046;-77
2022/03/03 12:33:57;;;;;;;29.27;19.27;;;20.20;40.80;;;;;;6251926;22;20023;-76
2022/03/03 12:36:23;;;;;;;26.73;19.38;;;20.80;39.70;;;;;;6329696;22;20019;-76
2022/03/03 12:38:51;;;;;;;28.27;19.95;;;20.80;40.40;;;;;;6305691;22;20030;-77
2022/03/03 12:41:18;;;;;;;31.83;20.33;;;20.70;40.10;;;;;;6305281;22;20444;-76
2022/03/03 12:43:43;;;;;;;30.13;19.35;;;21.30;40.30;;;;;;6303828;22;20019;-76
2022/03/03 12:46:10;;;;;;;28.30;18.52;;;21.90;39.10;;;;;;6329594;22;20390;-76
2022/03/03 12:48:36;;;;;;;25.35;16.20;;;22.50;38.90;;;;;;6303780;22;20030;-76
2022/03/03 12:51:06;;;;;;;22.52;15.95;;;22.60;37.50;;;;;;6303586;22;20031;-76